sensor_id;sensor_type;location;lat;lon;timestamp;P1;durP1;ratioP1;P2;durP2;ratioP2
17741;SDS011;8993;51.822;-2.268;2023-11-21T00:03:47;2.77;;;0.50;;
17741;SDS011;8993;51.822;-2.268;2023-11-21T00:08:52;1.91;;;0.43;;
17741;SDS011;8993;51.822;-2.268;2023-11-21T00:13:56;3.27;;;0.52;;
17741;SDS011;8993;51.822;-2.268;2023-11-21T00:19:01;2.32;;;0.45;;
17741;SDS011;8993;51.822;-2.268;2023-11-21T00:24:05;2.98;;;0.46;;
17741;SDS011;8993;51.822;-2.268;2023-11-21T00:29:09;2.48;;;0.49;;
17741;SDS011;8993;51.822;-2.268;2023-11-21T00:34:13;2.33;;;0.51;;
17741;SDS011;8993;51.822;-2.268;2023-11-21T00:39:18;3.51;;;0.59;;
17741;SDS011;8993;51.822;-2.268;2023-11-21T00:44:22;3.36;;;0.53;;
17741;SDS011;8993;51.822;-2.268;2023-11-21T00:49:26;2.19;;;0.54;;
17741;SDS011;8993;51.822;-2.268;2023-11-21T00:54:31;4.78;;;0.69;;
17741;SDS011;8993;51.822;-2.268;2023-11-21T00:59:35;3.17;;;0.69;;
17741;SDS011;8993;51.822;-2.268;2023-11-21T01:04:39;4.22;;;0.71;;
17741;SDS011;8993;51.822;-2.268;2023-11-21T01:09:44;4.00;;;0.79;;
17741;SDS011;8993;51.822;-2.268;2023-11-21T01:14:48;4.78;;;1.09;;
17741;SDS011;8993;51.822;-2.268;2023-11-21T01:19:52;3.47;;;0.93;;
17741;SDS011;8993;51.822;-2.268;2023-11-21T01:24:57;4.87;;;0.97;;
17741;SDS011;8993;51.822;-2.268;2023-11-21T01:30:01;3.98;;;1.18;;
17741;SDS011;8993;51.822;-2.268;2023-11-21T01:35:05;5.14;;;1.06;;
17741;SDS011;8993;51.822;-2.268;2023-11-21T01:40:10;4.09;;;1.22;;
17741;SDS011;8993;51.822;-2.268;2023-11-21T01:45:14;3.94;;;1.42;;
17741;SDS011;8993;51.822;-2.268;2023-11-21T01:50:18;4.97;;;1.55;;
17741;SDS011;8993;51.822;-2.268;2023-11-21T02:00:30;10.74;;;5.66;;
17741;SDS011;8993;51.822;-2.268;2023-11-21T02:05:34;7.67;;;3.89;;
17741;SDS011;8993;51.822;-2.268;2023-11-21T02:10:38;7.19;;;3.33;;
17741;SDS011;8993;51.822;-2.268;2023-11-21T02:15:43;5.69;;;3.09;;
17741;SDS011;8993;51.822;-2.268;2023-11-21T02:20:47;4.93;;;2.81;;
17741;SDS011;8993;51.822;-2.268;2023-11-21T02:25:51;7.28;;;3.60;;
17741;SDS011;8993;51.822;-2.268;2023-11-21T02:30:56;5.86;;;3.28;;
17741;SDS011;8993;51.822;-2.268;2023-11-21T02:36:00;6.04;;;3.81;;
17741;SDS011;8993;51.822;-2.268;2023-11-21T02:41:04;11.53;;;5.59;;
17741;SDS011;8993;51.822;-2.268;2023-11-21T02:46:08;12.92;;;6.46;;
17741;SDS011;8993;51.822;-2.268;2023-11-21T02:51:13;9.11;;;6.83;;
17741;SDS011;8993;51.822;-2.268;2023-11-21T02:56:17;9.59;;;6.81;;
17741;SDS011;8993;51.822;-2.268;2023-11-21T03:01:21;10.94;;;7.47;;
17741;SDS011;8993;51.822;-2.268;2023-11-21T03:06:26;8.74;;;7.39;;
17741;SDS011;8993;51.822;-2.268;2023-11-21T03:11:30;9.77;;;7.46;;
17741;SDS011;8993;51.822;-2.268;2023-11-21T03:16:35;11.69;;;8.96;;
17741;SDS011;8993;51.822;-2.268;2023-11-21T03:21:39;13.51;;;9.46;;
17741;SDS011;8993;51.822;-2.268;2023-11-21T03:26:44;16.77;;;11.76;;
17741;SDS011;8993;51.822;-2.268;2023-11-21T03:31:47;14.65;;;11.27;;
17741;SDS011;8993;51.822;-2.268;2023-11-21T03:36:52;9.94;;;7.65;;
17741;SDS011;8993;51.822;-2.268;2023-11-21T03:41:56;5.59;;;3.43;;
17741;SDS011;8993;51.822;-2.268;2023-11-21T03:47:00;4.52;;;2.57;;
17741;SDS011;8993;51.822;-2.268;2023-11-21T03:52:05;4.27;;;2.12;;
17741;SDS011;8993;51.822;-2.268;2023-11-21T03:57:09;2.90;;;1.31;;
17741;SDS011;8993;51.822;-2.268;2023-11-21T04:02:13;3.19;;;0.97;;
17741;SDS011;8993;51.822;-2.268;2023-11-21T04:07:17;1.76;;;0.75;;
17741;SDS011;8993;51.822;-2.268;2023-11-21T04:12:22;1.92;;;0.49;;
17741;SDS011;8993;51.822;-2.268;2023-11-21T04:17:26;1.27;;;0.35;;
17741;SDS011;8993;51.822;-2.268;2023-11-21T04:22:30;1.19;;;0.39;;
17741;SDS011;8993;51.822;-2.268;2023-11-21T04:27:35;0.71;;;0.39;;
17741;SDS011;8993;51.822;-2.268;2023-11-21T04:32:39;2.06;;;0.50;;
17741;SDS011;8993;51.822;-2.268;2023-11-21T04:37:43;1.71;;;0.42;;
17741;SDS011;8993;51.822;-2.268;2023-11-21T04:42:48;1.75;;;0.47;;
17741;SDS011;8993;51.822;-2.268;2023-11-21T04:47:52;2.47;;;0.53;;
17741;SDS011;8993;51.822;-2.268;2023-11-21T04:52:56;2.37;;;0.49;;
17741;SDS011;8993;51.822;-2.268;2023-11-21T04:58:00;2.05;;;0.47;;
17741;SDS011;8993;51.822;-2.268;2023-11-21T05:03:06;2.32;;;0.53;;
17741;SDS011;8993;51.822;-2.268;2023-11-21T05:08:09;2.65;;;0.54;;
17741;SDS011;8993;51.822;-2.268;2023-11-21T05:13:14;1.58;;;0.52;;
17741;SDS011;8993;51.822;-2.268;2023-11-21T05:18:18;2.79;;;0.59;;
17741;SDS011;8993;51.822;-2.268;2023-11-21T05:23:22;1.23;;;0.41;;
17741;SDS011;8993;51.822;-2.268;2023-11-21T05:28:26;1.41;;;0.31;;
17741;SDS011;8993;51.822;-2.268;2023-11-21T05:33:31;1.62;;;0.36;;
17741;SDS011;8993;51.822;-2.268;2023-11-21T05:38:35;1.22;;;0.29;;
17741;SDS011;8993;51.822;-2.268;2023-11-21T05:43:39;1.82;;;0.36;;
17741;SDS011;8993;51.822;-2.268;2023-11-21T05:48:44;1.47;;;0.42;;
17741;SDS011;8993;51.822;-2.268;2023-11-21T05:53:48;2.88;;;0.45;;
17741;SDS011;8993;51.822;-2.268;2023-11-21T05:58:52;2.37;;;0.49;;
17741;SDS011;8993;51.822;-2.268;2023-11-21T06:03:57;1.31;;;0.34;;
17741;SDS011;8993;51.822;-2.268;2023-11-21T06:09:01;1.98;;;0.44;;
17741;SDS011;8993;51.822;-2.268;2023-11-21T06:14:05;2.55;;;0.44;;
17741;SDS011;8993;51.822;-2.268;2023-11-21T06:19:10;1.64;;;0.38;;
17741;SDS011;8993;51.822;-2.268;2023-11-21T06:24:14;1.97;;;0.38;;
17741;SDS011;8993;51.822;-2.268;2023-11-21T06:29:18;1.12;;;0.29;;
17741;SDS011;8993;51.822;-2.268;2023-11-21T06:34:23;2.31;;;0.35;;
17741;SDS011;8993;51.822;-2.268;2023-11-21T06:39:27;3.05;;;0.32;;
17741;SDS011;8993;51.822;-2.268;2023-11-21T06:44:31;0.97;;;0.32;;
17741;SDS011;8993;51.822;-2.268;2023-11-21T06:49:36;1.98;;;0.33;;
17741;SDS011;8993;51.822;-2.268;2023-11-21T06:54:40;1.31;;;0.28;;
17741;SDS011;8993;51.822;-2.268;2023-11-21T06:59:44;1.71;;;0.32;;
17741;SDS011;8993;51.822;-2.268;2023-11-21T07:04:49;2.56;;;0.29;;
17741;SDS011;8993;51.822;-2.268;2023-11-21T07:09:53;1.91;;;0.35;;
17741;SDS011;8993;51.822;-2.268;2023-11-21T07:14:57;3.20;;;0.33;;
17741;SDS011;8993;51.822;-2.268;2023-11-21T07:20:02;2.73;;;0.31;;
17741;SDS011;8993;51.822;-2.268;2023-11-21T07:25:06;1.25;;;0.27;;
17741;SDS011;8993;51.822;-2.268;2023-11-21T07:30:11;2.32;;;0.24;;
17741;SDS011;8993;51.822;-2.268;2023-11-21T07:35:15;1.54;;;0.25;;
17741;SDS011;8993;51.822;-2.268;2023-11-21T07:40:19;2.38;;;0.30;;
17741;SDS011;8993;51.822;-2.268;2023-11-21T07:45:24;2.25;;;0.30;;
17741;SDS011;8993;51.822;-2.268;2023-11-21T07:50:28;2.61;;;0.29;;
17741;SDS011;8993;51.822;-2.268;2023-11-21T07:55:32;2.71;;;0.32;;
17741;SDS011;8993;51.822;-2.268;2023-11-21T08:00:37;2.29;;;0.34;;
17741;SDS011;8993;51.822;-2.268;2023-11-21T08:05:42;3.34;;;0.49;;
17741;SDS011;8993;51.822;-2.268;2023-11-21T08:10:46;2.97;;;0.41;;
17741;SDS011;8993;51.822;-2.268;2023-11-21T08:15:50;4.07;;;0.46;;
17741;SDS011;8993;51.822;-2.268;2023-11-21T08:20:55;3.17;;;0.41;;
17741;SDS011;8993;51.822;-2.268;2023-11-21T08:25:59;4.35;;;0.52;;
17741;SDS011;8993;51.822;-2.268;2023-11-21T08:31:03;3.78;;;0.87;;
17741;SDS011;8993;51.822;-2.268;2023-11-21T08:36:09;2.80;;;0.51;;
17741;SDS011;8993;51.822;-2.268;2023-11-21T08:41:13;3.33;;;0.63;;
17741;SDS011;8993;51.822;-2.268;2023-11-21T08:46:17;4.73;;;0.72;;
17741;SDS011;8993;51.822;-2.268;2023-11-21T08:51:22;3.18;;;0.69;;
17741;SDS011;8993;51.822;-2.268;2023-11-21T08:56:26;3.08;;;0.84;;
17741;SDS011;8993;51.822;-2.268;2023-11-21T09:01:30;2.97;;;0.70;;
17741;SDS011;8993;51.822;-2.268;2023-11-21T09:06:35;3.04;;;0.69;;
17741;SDS011;8993;51.822;-2.268;2023-11-21T09:11:39;3.73;;;0.71;;
17741;SDS011;8993;51.822;-2.268;2023-11-21T09:16:44;3.48;;;0.63;;
17741;SDS011;8993;51.822;-2.268;2023-11-21T09:21:48;4.11;;;0.71;;
17741;SDS011;8993;51.822;-2.268;2023-11-21T09:26:52;3.54;;;0.63;;
17741;SDS011;8993;51.822;-2.268;2023-11-21T09:31:57;3.25;;;0.66;;
17741;SDS011;8993;51.822;-2.268;2023-11-21T09:37:01;3.81;;;0.65;;
17741;SDS011;8993;51.822;-2.268;2023-11-21T09:42:08;4.45;;;0.64;;
17741;SDS011;8993;51.822;-2.268;2023-11-21T09:47:10;3.86;;;0.63;;
17741;SDS011;8993;51.822;-2.268;2023-11-21T09:52:17;3.39;;;0.68;;
17741;SDS011;8993;51.822;-2.268;2023-11-21T09:57:19;3.99;;;0.72;;
17741;SDS011;8993;51.822;-2.268;2023-11-21T10:02:24;3.17;;;0.64;;
17741;SDS011;8993;51.822;-2.268;2023-11-21T10:07:27;4.23;;;0.68;;
17741;SDS011;8993;51.822;-2.268;2023-11-21T10:12:32;2.17;;;0.53;;
17741;SDS011;8993;51.822;-2.268;2023-11-21T10:17:37;3.56;;;0.56;;
17741;SDS011;8993;51.822;-2.268;2023-11-21T10:22:41;4.12;;;0.79;;
17741;SDS011;8993;51.822;-2.268;2023-11-21T10:27:47;2.64;;;0.63;;
17741;SDS011;8993;51.822;-2.268;2023-11-21T10:32:50;2.54;;;0.67;;
17741;SDS011;8993;51.822;-2.268;2023-11-21T10:37:59;2.90;;;0.57;;
17741;SDS011;8993;51.822;-2.268;2023-11-21T10:43:04;2.80;;;0.56;;
17741;SDS011;8993;51.822;-2.268;2023-11-21T10:48:05;2.37;;;0.62;;
17741;SDS011;8993;51.822;-2.268;2023-11-21T10:53:08;2.44;;;0.59;;
17741;SDS011;8993;51.822;-2.268;2023-11-21T10:58:13;3.93;;;0.59;;
17741;SDS011;8993;51.822;-2.268;2023-11-21T11:03:16;2.26;;;0.60;;
17741;SDS011;8993;51.822;-2.268;2023-11-21T11:08:21;3.17;;;0.66;;
17741;SDS011;8993;51.822;-2.268;2023-11-21T11:13:25;3.38;;;0.64;;
17741;SDS011;8993;51.822;-2.268;2023-11-21T11:18:30;3.36;;;0.77;;
17741;SDS011;8993;51.822;-2.268;2023-11-21T11:23:39;4.90;;;0.76;;
17741;SDS011;8993;51.822;-2.268;2023-11-21T11:28:41;2.72;;;0.70;;
17741;SDS011;8993;51.822;-2.268;2023-11-21T11:33:43;4.18;;;0.86;;
17741;SDS011;8993;51.822;-2.268;2023-11-21T11:38:47;5.77;;;0.89;;
17741;SDS011;8993;51.822;-2.268;2023-11-21T11:43:52;3.39;;;0.83;;
17741;SDS011;8993;51.822;-2.268;2023-11-21T11:49:02;4.36;;;0.76;;
17741;SDS011;8993;51.822;-2.268;2023-11-21T11:54:00;4.62;;;0.88;;
17741;SDS011;8993;51.822;-2.268;2023-11-21T11:59:06;4.36;;;0.95;;
17741;SDS011;8993;51.822;-2.268;2023-11-21T12:09:17;4.66;;;0.94;;
17741;SDS011;8993;51.822;-2.268;2023-11-21T12:14:19;5.13;;;0.81;;
17741;SDS011;8993;51.822;-2.268;2023-11-21T12:19:23;5.21;;;0.85;;
17741;SDS011;8993;51.822;-2.268;2023-11-21T12:24:27;3.43;;;0.73;;
17741;SDS011;8993;51.822;-2.268;2023-11-21T12:29:31;4.37;;;0.91;;
17741;SDS011;8993;51.822;-2.268;2023-11-21T12:34:35;4.49;;;0.91;;
17741;SDS011;8993;51.822;-2.268;2023-11-21T12:39:39;6.51;;;0.97;;
17741;SDS011;8993;51.822;-2.268;2023-11-21T12:44:43;5.48;;;0.94;;
17741;SDS011;8993;51.822;-2.268;2023-11-21T12:49:48;5.09;;;1.05;;
17741;SDS011;8993;51.822;-2.268;2023-11-21T12:54:53;5.73;;;1.27;;
17741;SDS011;8993;51.822;-2.268;2023-11-21T12:59:57;4.33;;;0.98;;
17741;SDS011;8993;51.822;-2.268;2023-11-21T13:05:01;3.75;;;0.91;;
17741;SDS011;8993;51.822;-2.268;2023-11-21T13:10:06;5.39;;;1.09;;
17741;SDS011;8993;51.822;-2.268;2023-11-21T13:15:11;4.31;;;0.92;;
17741;SDS011;8993;51.822;-2.268;2023-11-21T13:20:15;3.62;;;0.91;;
17741;SDS011;8993;51.822;-2.268;2023-11-21T13:25:20;4.57;;;1.38;;
17741;SDS011;8993;51.822;-2.268;2023-11-21T13:30:24;2.84;;;1.01;;
17741;SDS011;8993;51.822;-2.268;2023-11-21T13:35:28;4.36;;;0.96;;
17741;SDS011;8993;51.822;-2.268;2023-11-21T13:40:33;4.80;;;1.11;;
17741;SDS011;8993;51.822;-2.268;2023-11-21T13:45:37;6.52;;;1.34;;
17741;SDS011;8993;51.822;-2.268;2023-11-21T13:50:42;5.16;;;1.40;;
17741;SDS011;8993;51.822;-2.268;2023-11-21T13:55:46;5.35;;;1.18;;
17741;SDS011;8993;51.822;-2.268;2023-11-21T14:00:51;6.59;;;1.38;;
17741;SDS011;8993;51.822;-2.268;2023-11-21T14:05:55;6.48;;;1.43;;
17741;SDS011;8993;51.822;-2.268;2023-11-21T14:10:59;6.69;;;1.59;;
17741;SDS011;8993;51.822;-2.268;2023-11-21T14:16:04;7.10;;;1.70;;
17741;SDS011;8993;51.822;-2.268;2023-11-21T14:21:08;8.29;;;1.61;;
17741;SDS011;8993;51.822;-2.268;2023-11-21T14:26:12;7.15;;;2.22;;
17741;SDS011;8993;51.822;-2.268;2023-11-21T14:31:16;9.14;;;1.97;;
17741;SDS011;8993;51.822;-2.268;2023-11-21T14:36:20;11.56;;;2.46;;
17741;SDS011;8993;51.822;-2.268;2023-11-21T14:41:24;6.44;;;1.77;;
17741;SDS011;8993;51.822;-2.268;2023-11-21T14:46:28;7.52;;;2.23;;
17741;SDS011;8993;51.822;-2.268;2023-11-21T14:51:32;9.93;;;2.21;;
17741;SDS011;8993;51.822;-2.268;2023-11-21T14:56:36;6.72;;;2.15;;
17741;SDS011;8993;51.822;-2.268;2023-11-21T15:01:40;6.53;;;1.84;;
17741;SDS011;8993;51.822;-2.268;2023-11-21T15:06:44;7.43;;;1.64;;
17741;SDS011;8993;51.822;-2.268;2023-11-21T15:11:48;8.01;;;1.40;;
17741;SDS011;8993;51.822;-2.268;2023-11-21T15:16:53;9.45;;;2.41;;
17741;SDS011;8993;51.822;-2.268;2023-11-21T15:21:57;8.12;;;3.15;;
17741;SDS011;8993;51.822;-2.268;2023-11-21T15:27:01;7.40;;;1.80;;
17741;SDS011;8993;51.822;-2.268;2023-11-21T15:32:05;11.31;;;2.58;;
17741;SDS011;8993;51.822;-2.268;2023-11-21T15:37:09;7.61;;;1.93;;
17741;SDS011;8993;51.822;-2.268;2023-11-21T15:42:13;8.07;;;2.19;;
17741;SDS011;8993;51.822;-2.268;2023-11-21T15:47:17;10.51;;;2.76;;
17741;SDS011;8993;51.822;-2.268;2023-11-21T15:52:21;8.81;;;2.09;;
17741;SDS011;8993;51.822;-2.268;2023-11-21T15:57:25;9.78;;;2.41;;
17741;SDS011;8993;51.822;-2.268;2023-11-21T16:02:29;8.13;;;1.92;;
17741;SDS011;8993;51.822;-2.268;2023-11-21T16:07:33;8.70;;;1.78;;
17741;SDS011;8993;51.822;-2.268;2023-11-21T16:12:38;6.86;;;1.81;;
17741;SDS011;8993;51.822;-2.268;2023-11-21T16:17:42;7.27;;;2.04;;
17741;SDS011;8993;51.822;-2.268;2023-11-21T16:22:45;7.42;;;1.85;;
17741;SDS011;8993;51.822;-2.268;2023-11-21T16:27:49;8.16;;;1.75;;
17741;SDS011;8993;51.822;-2.268;2023-11-21T16:32:53;7.46;;;1.92;;
17741;SDS011;8993;51.822;-2.268;2023-11-21T16:37:57;6.41;;;1.48;;
17741;SDS011;8993;51.822;-2.268;2023-11-21T16:43:01;6.60;;;1.42;;
17741;SDS011;8993;51.822;-2.268;2023-11-21T16:48:06;11.81;;;4.10;;
17741;SDS011;8993;51.822;-2.268;2023-11-21T16:53:09;12.15;;;3.82;;
17741;SDS011;8993;51.822;-2.268;2023-11-21T16:58:13;9.12;;;3.18;;
17741;SDS011;8993;51.822;-2.268;2023-11-21T17:03:17;7.93;;;2.29;;
17741;SDS011;8993;51.822;-2.268;2023-11-21T17:08:21;7.35;;;1.97;;
17741;SDS011;8993;51.822;-2.268;2023-11-21T17:13:25;7.34;;;1.73;;
17741;SDS011;8993;51.822;-2.268;2023-11-21T17:18:30;8.65;;;1.91;;
17741;SDS011;8993;51.822;-2.268;2023-11-21T17:23:33;7.83;;;1.70;;
17741;SDS011;8993;51.822;-2.268;2023-11-21T17:28:38;6.61;;;1.64;;
17741;SDS011;8993;51.822;-2.268;2023-11-21T17:33:42;6.58;;;1.79;;
17741;SDS011;8993;51.822;-2.268;2023-11-21T17:38:46;6.39;;;1.50;;
17741;SDS011;8993;51.822;-2.268;2023-11-21T17:43:50;6.94;;;1.46;;
17741;SDS011;8993;51.822;-2.268;2023-11-21T17:48:54;7.79;;;1.92;;
17741;SDS011;8993;51.822;-2.268;2023-11-21T17:53:58;8.43;;;2.32;;
17741;SDS011;8993;51.822;-2.268;2023-11-21T17:59:03;9.26;;;2.83;;
17741;SDS011;8993;51.822;-2.268;2023-11-21T18:04:08;6.41;;;1.95;;
17741;SDS011;8993;51.822;-2.268;2023-11-21T18:09:13;7.96;;;2.03;;
17741;SDS011;8993;51.822;-2.268;2023-11-21T18:14:18;9.30;;;1.95;;
17741;SDS011;8993;51.822;-2.268;2023-11-21T18:19:23;9.18;;;2.34;;
17741;SDS011;8993;51.822;-2.268;2023-11-21T18:24:27;8.11;;;2.13;;
17741;SDS011;8993;51.822;-2.268;2023-11-21T18:29:31;8.09;;;2.22;;
17741;SDS011;8993;51.822;-2.268;2023-11-21T18:34:40;8.54;;;2.34;;
17741;SDS011;8993;51.822;-2.268;2023-11-21T18:39:40;7.88;;;2.23;;
17741;SDS011;8993;51.822;-2.268;2023-11-21T18:44:44;13.62;;;4.14;;
17741;SDS011;8993;51.822;-2.268;2023-11-21T18:49:50;18.43;;;5.71;;
17741;SDS011;8993;51.822;-2.268;2023-11-21T18:54:54;12.53;;;4.47;;
17741;SDS011;8993;51.822;-2.268;2023-11-21T18:59:58;9.42;;;3.62;;
17741;SDS011;8993;51.822;-2.268;2023-11-21T19:05:03;8.14;;;2.46;;
17741;SDS011;8993;51.822;-2.268;2023-11-21T19:10:07;7.36;;;2.08;;
17741;SDS011;8993;51.822;-2.268;2023-11-21T19:15:12;8.22;;;2.76;;
17741;SDS011;8993;51.822;-2.268;2023-11-21T19:20:16;9.54;;;2.91;;
17741;SDS011;8993;51.822;-2.268;2023-11-21T19:25:20;11.78;;;3.18;;
17741;SDS011;8993;51.822;-2.268;2023-11-21T19:30:25;9.54;;;2.75;;
17741;SDS011;8993;51.822;-2.268;2023-11-21T19:35:29;7.08;;;2.20;;
17741;SDS011;8993;51.822;-2.268;2023-11-21T19:40:34;6.33;;;2.31;;
17741;SDS011;8993;51.822;-2.268;2023-11-21T19:45:38;7.70;;;2.64;;
17741;SDS011;8993;51.822;-2.268;2023-11-21T19:50:42;9.27;;;2.75;;
17741;SDS011;8993;51.822;-2.268;2023-11-21T19:55:46;7.19;;;2.43;;
17741;SDS011;8993;51.822;-2.268;2023-11-21T20:00:51;9.24;;;3.47;;
17741;SDS011;8993;51.822;-2.268;2023-11-21T20:05:55;7.53;;;3.19;;
17741;SDS011;8993;51.822;-2.268;2023-11-21T20:10:59;8.75;;;3.79;;
17741;SDS011;8993;51.822;-2.268;2023-11-21T20:16:04;10.27;;;4.85;;
17741;SDS011;8993;51.822;-2.268;2023-11-21T20:21:07;9.27;;;4.24;;
17741;SDS011;8993;51.822;-2.268;2023-11-21T20:26:12;8.70;;;3.76;;
17741;SDS011;8993;51.822;-2.268;2023-11-21T20:31:17;8.61;;;3.97;;
17741;SDS011;8993;51.822;-2.268;2023-11-21T20:36:20;10.41;;;5.27;;
17741;SDS011;8993;51.822;-2.268;2023-11-21T20:41:25;15.07;;;8.32;;
17741;SDS011;8993;51.822;-2.268;2023-11-21T20:46:29;39.15;;;24.04;;
17741;SDS011;8993;51.822;-2.268;2023-11-21T20:51:33;14.09;;;8.10;;
17741;SDS011;8993;51.822;-2.268;2023-11-21T20:56:37;9.15;;;4.17;;
17741;SDS011;8993;51.822;-2.268;2023-11-21T21:01:42;10.06;;;5.97;;
17741;SDS011;8993;51.822;-2.268;2023-11-21T21:06:46;11.07;;;5.45;;
17741;SDS011;8993;51.822;-2.268;2023-11-21T21:11:50;7.34;;;3.98;;
17741;SDS011;8993;51.822;-2.268;2023-11-21T21:16:55;9.71;;;4.15;;
17741;SDS011;8993;51.822;-2.268;2023-11-21T21:21:59;9.80;;;4.76;;
17741;SDS011;8993;51.822;-2.268;2023-11-21T21:27:04;9.75;;;4.17;;
17741;SDS011;8993;51.822;-2.268;2023-11-21T21:32:08;7.49;;;3.77;;
17741;SDS011;8993;51.822;-2.268;2023-11-21T21:37:12;8.01;;;4.02;;
17741;SDS011;8993;51.822;-2.268;2023-11-21T21:42:16;10.11;;;3.99;;
17741;SDS011;8993;51.822;-2.268;2023-11-21T21:47:20;8.69;;;4.38;;
17741;SDS011;8993;51.822;-2.268;2023-11-21T21:52:32;9.87;;;4.95;;
17741;SDS011;8993;51.822;-2.268;2023-11-21T21:57:28;8.83;;;4.25;;
17741;SDS011;8993;51.822;-2.268;2023-11-21T22:02:32;8.56;;;4.59;;
17741;SDS011;8993;51.822;-2.268;2023-11-21T22:07:37;9.73;;;4.88;;
17741;SDS011;8993;51.822;-2.268;2023-11-21T22:12:43;13.02;;;5.74;;
17741;SDS011;8993;51.822;-2.268;2023-11-21T22:17:47;11.82;;;6.09;;
17741;SDS011;8993;51.822;-2.268;2023-11-21T22:22:52;12.15;;;5.77;;
17741;SDS011;8993;51.822;-2.268;2023-11-21T22:27:56;14.24;;;6.90;;
17741;SDS011;8993;51.822;-2.268;2023-11-21T22:33:00;43.68;;;16.75;;
17741;SDS011;8993;51.822;-2.268;2023-11-21T22:38:05;35.01;;;13.28;;
17741;SDS011;8993;51.822;-2.268;2023-11-21T22:43:09;31.43;;;11.53;;
17741;SDS011;8993;51.822;-2.268;2023-11-21T22:48:13;98.83;;;29.35;;
17741;SDS011;8993;51.822;-2.268;2023-11-21T22:53:18;49.60;;;16.77;;
17741;SDS011;8993;51.822;-2.268;2023-11-21T22:58:22;34.13;;;13.28;;
17741;SDS011;8993;51.822;-2.268;2023-11-21T23:03:26;25.22;;;10.67;;
17741;SDS011;8993;51.822;-2.268;2023-11-21T23:08:31;21.74;;;9.41;;
17741;SDS011;8993;51.822;-2.268;2023-11-21T23:13:35;14.27;;;7.33;;
17741;SDS011;8993;51.822;-2.268;2023-11-21T23:18:39;12.94;;;6.34;;
17741;SDS011;8993;51.822;-2.268;2023-11-21T23:23:43;8.21;;;4.45;;
17741;SDS011;8993;51.822;-2.268;2023-11-21T23:28:48;7.62;;;4.30;;
17741;SDS011;8993;51.822;-2.268;2023-11-21T23:33:52;6.74;;;4.02;;
17741;SDS011;8993;51.822;-2.268;2023-11-21T23:38:56;8.64;;;4.50;;
17741;SDS011;8993;51.822;-2.268;2023-11-21T23:44:01;6.41;;;4.08;;
17741;SDS011;8993;51.822;-2.268;2023-11-21T23:49:05;8.62;;;4.72;;
17741;SDS011;8993;51.822;-2.268;2023-11-21T23:54:09;9.06;;;4.84;;
17741;SDS011;8993;51.822;-2.268;2023-11-21T23:59:14;8.30;;;4.86;;
